Mobridge Municipal Airport Mobridge US
ICAO: KMBG
IATA: MBG
Category: Medium
Scheduled Services: No

Elevation: 1716 ft
TransAlt. 18000 ft.

Airport Communications:
ASOS:121.425
HURON RDO:122.35
CTAF/UNICOM:122.8

KMBG Zoom In..

If Map Doesn't Load, Click Here

Runways:

(A) RW 12 length 4410 ft width 75 ft
---- / hdg 118

(B) RW 17 length 2399 ft width 250 ft
---- / hdg 171

(C) RW 30 length 4410 ft width 75 ft
---- / hdg 298

(D) RW 35 length 2399 ft width 250 ft
---- / hdg 351

Location; KMBG
Day. 23 / Time. 08.03 Zulu
* Altimeter: 29.86
* Temperature: 12° c. 53.6°f.
* Wind from: VRB° Speed 04 kn.
Dewpoint: 09° c.
Visibility: 10 Statute Miles.
Clouds: Few 900 ft.

KMBG 230803Z AUTO VRB04KT 10SM FEW009 12/09 A2986 RMK AO2 T01170094


Wind From VRB°
Speed 04 kn.

 
 
jpsmedia.com for Web Design worldairports.se 2018   terms of use